• Join FlightAware (Why Join?)
  • Login
  • US Flag 
12:54AM EDT


 

Airport Tracker/Info


-or-


 

Live Flight TrackerFlight Track Log ✈ SWA1464 ✈ 06-Oct-2013 ✈ KMCI - KMCO

Flight Track Log - Related Links

Times and Time Zones

All times are in EDT time to prevent confusion due to time zone crossing. See the SWA1464 flight status page for this flight to view local times or setup timezone preferences in your user account.

Time Position Orientation Groundspeed Altitude Reporting Facility
EDT Latitude Longitude Course Direction KTS MPH feet Rate Location/Type
09:59AM 39.3167 -94.7167 322° Northwest 183 211 1,500  Level Kansas City TRACON
10:00AM 39.3500 -94.7500 322° Northwest 173 199 3,800 2,580 Climbing Kansas City TRACON
10:01AM 39.2917 -94.7833 204° Southwest 248 285 6,500 2,460 Climbing Kansas City Center
10:02AM 39.2122 -94.7803 178° South 295 339 9,100 2,460 Climbing Kansas City Center
10:03AM 39.1108 -94.7494 167° South 337 388 11,600 2,580 Climbing Kansas City Center
10:04AM 39.0100 -94.7183 167° South 377 434 14,400 2,880 Climbing Kansas City Center
10:05AM 38.8950 -94.6822 166° South 384 442 17,600 2,340 Climbing Kansas City Center
10:06AM 38.7922 -94.6508 167° South 393 452 19,300 1,800 Climbing Kansas City Center
10:07AM 38.6861 -94.6169 166° South 407 468 21,400 1,920 Climbing Kansas City Center
10:08AM 38.5600 -94.5775 166° South 415 478 23,300 1,680 Climbing Kansas City Center
10:09AM 38.4500 -94.5353 163° South 429 494 24,800 1,500 Climbing Kansas City Center
10:11AM 38.3625 -94.3950 128° Southeast 450 518 26,500 1,320 Climbing Kansas City Center
10:12AM 38.2889 -94.2669 126° Southeast 460 529 27,600 1,440 Climbing Kansas City Center
10:13AM 38.2153 -94.1392 126° Southeast 466 536 29,500 1,320 Climbing Kansas City Center
10:14AM 38.1331 -93.9989 127° Southeast 460 529 30,400 840 Climbing Kansas City Center
10:15AM 38.0539 -93.8647 127° Southeast 470 541 31,300 900 Climbing Kansas City Center
10:16AM 37.9733 -93.7281 127° Southeast 479 551 32,200 1,380 Climbing Kansas City Center
10:17AM 37.8942 -93.5944 127° Southeast 477 549 34,200 1,320 Climbing Kansas City Center
10:18AM 37.8208 -93.4692 127° Southeast 452 520 35,000 360 Climbing Kansas City Center
10:19AM 37.7281 -93.3142 127° Southeast 459 528 35,000  Level Kansas City Center
10:20AM 37.6506 -93.1836 127° Southeast 464 534 35,000  Level Kansas City Center
10:21AM 37.5708 -93.0536 128° Southeast 467 537 35,000  Level Kansas City Center
10:22AM 37.4936 -92.9242 127° Southeast 466 536 35,000  Level Kansas City Center
10:23AM 37.4181 -92.7981 127° Southeast 458 527 35,000  Level Kansas City Center
10:24AM 37.3431 -92.6747 127° Southeast 450 518 35,000  Level Kansas City Center
10:25AM 37.2692 -92.5542 128° Southeast 442 509 35,000  Level Kansas City Center
10:26AM 37.1953 -92.4347 128° Southeast 438 504 35,000  Level Kansas City Center
10:27AM 37.1072 -92.2906 127° Southeast 435 501 35,000  Level Kansas City Center
10:28AM 37.0336 -92.1719 128° Southeast 433 498 35,000  Level Kansas City Center
10:29AM 36.9583 -92.0511 128° Southeast 437 503 35,000  Level Kansas City Center
10:30AM 36.8847 -91.9314 128° Southeast 437 503 35,000  Level Kansas City Center
10:31AM 36.8100 -91.8119 128° Southeast 435 501 35,000  Level Kansas City Center
10:32AM 36.7356 -91.6911 128° Southeast 438 504 35,000  Level Kansas City Center
10:33AM 36.6619 -91.5719 128° Southeast 435 501 35,000  Level Kansas City Center
10:34AM 36.6161 -91.5072 131° Southeast 437 503 35,000  Level Memphis Center
10:35AM 36.5358 -91.3797 128° Southeast 437 503 35,000  Level Memphis Center
10:36AM 36.4681 -91.2756 129° Southeast 431 496 35,000  Level Memphis Center
10:37AM 36.3958 -91.1614 128° Southeast 426 490 35,000  Level Memphis Center
10:38AM 36.3256 -91.0472 127° Southeast 426 490 35,000  Level Memphis Center
10:39AM 36.2511 -90.9336 129° Southeast 426 490 35,000  Level Memphis Center
10:40AM 36.1808 -90.8225 128° Southeast 426 490 35,000  Level Memphis Center
10:41AM 36.1061 -90.7089 129° Southeast 426 490 35,000  Level Memphis Center
10:42AM 36.0353 -90.5983 128° Southeast 426 490 35,000  Level Memphis Center
10:43AM 35.9647 -90.4878 128° Southeast 426 490 35,000  Level Memphis Center
10:44AM 35.8939 -90.3775 128° Southeast 419 482 35,000  Level Memphis Center
10:45AM 35.8186 -90.2647 129° Southeast 419 482 35,000  Level Memphis Center
10:46AM 35.7456 -90.1550 129° Southeast 424 488 35,000  Level Memphis Center
10:47AM 35.6722 -90.0300 126° Southeast 424 488 35,000 -900 Level Memphis Center
10:48AM 35.5989 -89.9178 129° Southeast 419 482 33,300 -2,040 Descending Memphis Center
10:49AM 35.5233 -89.8036 129° Southeast 424 488 31,000 -1,200 Descending Memphis Center
10:50AM 35.4456 -89.6867 129° Southeast 432 497 31,000  Level Memphis Center
10:51AM 35.3678 -89.5678 129° Southeast 437 503 31,000  Level Memphis Center
10:52AM 35.2897 -89.4514 129° Southeast 442 509 31,000  Level Memphis Center
10:53AM 35.2222 -89.3481 129° Southeast 442 509 31,000  Level Memphis Center
10:54AM 35.1400 -89.2322 131° Southeast 447 514 31,000  Level Memphis Center
10:55AM 35.0636 -89.1139 128° Southeast 447 514 31,000  Level Memphis Center
10:56AM 34.9853 -89.0011 130° Southeast 447 514 31,000  Level Memphis Center
10:57AM 34.9067 -88.8858 130° Southeast 447 514 31,000  Level Memphis Center
10:58AM 34.8217 -88.7583 129° Southeast 442 509 31,000  Level Memphis Center
10:59AM 34.7431 -88.6461 130° Southeast 442 509 31,000  Level Memphis Center
11:00AM 34.6642 -88.5342 131° Southeast 437 503 31,000  Level Memphis Center
11:01AM 34.5961 -88.4372 130° Southeast 432 497 31,000  Level Memphis Center
11:02AM 34.5067 -88.3333 136° Southeast 432 497 31,000  Level Memphis Center
11:03AM 34.4133 -88.2450 142° Southeast 425 489 31,000  Level Memphis Center
11:04AM 34.3053 -88.1394 141° Southeast 441 507 31,000  Level Memphis Center
11:05AM 34.2117 -88.0514 142° Southeast 441 507 31,000  Level Memphis Center
11:06AM 34.0633 -87.9078 141° Southeast 434 499 31,000  Level Atlanta Center
11:07AM 33.9875 -87.7917 128° Southeast 434 499 31,000  Level Atlanta Center
11:08AM 33.9075 -87.6756 130° Southeast 434 499 31,000  Level Atlanta Center
11:09AM 33.8294 -87.5622 130° Southeast 440 506 31,000  Level Atlanta Center
11:10AM 33.7556 -87.4467 128° Southeast 440 506 31,000  Level Atlanta Center
11:11AM 33.6772 -87.3289 129° Southeast 440 506 31,000  Level Atlanta Center
11:12AM 33.5989 -87.2161 130° Southeast 440 506 31,000  Level Atlanta Center
11:13AM 33.5222 -87.1061 130° Southeast 440 506 31,000  Level Atlanta Center
11:14AM 33.4458 -86.9889 128° Southeast 440 506 31,000  Level Atlanta Center
11:15AM 33.3692 -86.8769 129° Southeast 440 506 31,000  Level Atlanta Center
11:16AM 33.3064 -86.7878 130° Southeast 440 506 31,000  Level Atlanta Center
11:17AM 33.2258 -86.6636 128° Southeast 440 506 31,000  Level Atlanta Center
11:18AM 33.1467 -86.5497 130° Southeast 440 506 31,000  Level Atlanta Center
11:19AM 33.0694 -86.4383 130° Southeast 440 506 31,000  Level Atlanta Center
11:20AM 32.9944 -86.3272 129° Southeast 435 501 31,000  Level Atlanta Center
11:21AM 32.9150 -86.2189 131° Southeast 430 495 31,000  Level Atlanta Center
11:22AM 32.8356 -86.1031 129° Southeast 442 509 31,000  Level Atlanta Center
11:23AM 32.7581 -85.9903 129° Southeast 442 509 31,000  Level Atlanta Center
11:24AM 32.6783 -85.8772 130° Southeast 442 509 31,000  Level Atlanta Center
11:25AM 32.5986 -85.7647 130° Southeast 442 509 31,000  Level Atlanta Center
11:26AM 32.5125 -85.6447 130° Southeast 435 501 31,000  Level Atlanta Center
11:27AM 32.4306 -85.5303 130° Southeast 441 507 31,000  Level Atlanta Center
11:28AM 32.3506 -85.4181 130° Southeast 441 507 31,000  Level Atlanta Center
11:29AM 32.2703 -85.3064 130° Southeast 436 502 31,000  Level Atlanta Center
11:30AM 32.1919 -85.1947 130° Southeast 436 502 31,000  Level Atlanta Center
11:31AM 32.1094 -85.0908 133° Southeast 436 502 31,000  Level Atlanta Center
11:32AM 32.0289 -84.9772 130° Southeast 436 502 31,000  Level Atlanta Center
11:35AM 31.8361 -84.7094 130° Southeast 448 516 31,000  Level Jacksonville Center
11:36AM 31.7564 -84.5956 129° Southeast 443 510 31,000  Level Jacksonville Center
11:37AM 31.6742 -84.4867 132° Southeast 443 510 31,000  Level Jacksonville Center
11:38AM 31.5919 -84.3781 132° Southeast 438 504 31,000  Level Jacksonville Center
11:39AM 31.5097 -84.2644 130° Southeast 438 504 31,000  Level Jacksonville Center
11:40AM 31.4294 -84.1539 130° Southeast 438 504 31,000  Level Jacksonville Center
11:41AM 31.3367 -84.0308 131° Southeast 444 511 31,000  Level Jacksonville Center
11:42AM 31.2561 -83.9206 130° Southeast 444 511 31,000  Level Jacksonville Center
11:43AM 31.1756 -83.8103 130° Southeast 444 511 31,000  Level Jacksonville Center
11:44AM 31.0908 -83.6981 131° Southeast 444 511 31,000  Level Jacksonville Center
11:45AM 31.0081 -83.5858 131° Southeast 449 517 31,000  Level Jacksonville Center
11:46AM 30.9269 -83.4739 130° Southeast 449 517 31,000  Level Jacksonville Center
11:47AM 30.8439 -83.3644 131° Southeast 449 517 31,000  Level Jacksonville Center
11:48AM 30.7711 -83.2672 131° Southeast 449 517 31,000 -1,080 Level Jacksonville Center
11:49AM 30.6756 -83.1703 139° Southeast 449 517 28,900 -2,040 Descending Jacksonville Center
11:50AM 30.5817 -83.0736 138° Southeast 454 522 27,000 -960 Descending Jacksonville Center
11:51AM 30.4919 -82.9794 138° Southeast 449 517 27,000 -420 Level Jacksonville Center
11:52AM 30.4022 -82.8878 139° Southeast 437 503 26,200 -840 Descending Jacksonville Center
11:53AM 30.3125 -82.7964 139° Southeast 437 503 25,400 -600 Descending Jacksonville Center
11:54AM 30.2225 -82.7028 138° Southeast 437 503 25,000 -240 Descending Jacksonville Center
11:55AM 30.1200 -82.6044 140° Southeast 437 503 25,000  Level Jacksonville Center
11:56AM 30.0322 -82.5136 138° Southeast 437 503 25,000  Level Jacksonville Center
11:57AM 29.9422 -82.4419 145° Southeast 437 503 25,000  Level Jacksonville Center
11:58AM 29.8292 -82.3994 162° South 426 490 25,000  Level Jacksonville Center
11:59AM 29.7225 -82.3425 155° Southeast 426 490 25,000 -720 Level Jacksonville Center
12:00PM 29.6136 -82.2906 157° South 426 490 23,600 -1,680 Descending Jacksonville Center
12:01PM 29.5069 -82.2386 157° South 421 484 21,700 -1,980 Descending Jacksonville Center
12:02PM 29.4044 -82.1869 156° South 411 473 19,700 -1,980 Descending Jacksonville Center
12:03PM 29.3061 -82.1400 157° South 399 459 17,800 -1,920 Descending Jacksonville Center
12:04PM 29.2078 -82.0931 157° South 392 451 15,900 -1,980 Descending Jacksonville Center
12:05PM 29.1114 -82.0442 156° South 387 445 13,900 -1,980 Descending Jacksonville Center
12:06PM 29.0192 -81.9997 157° South 373 429 12,000 -1,500 Descending Jacksonville Center
12:07PM 28.9292 -81.9556 157° South 363 418 11,000 -540 Descending Jacksonville Center
12:08PM 28.8661 -81.9039 144° Southeast 331 381 11,000  Level Jacksonville Center
12:09PM 28.8239 -81.8308 123° Southeast 280 322 11,000 -540 Level Jacksonville Center
12:09PM 28.8000 -81.7667 113° Southeast 286 329 10,200 -1,320 Descending Orlando TRACON
12:10PM 28.7833 -81.6833 103° East 279 321 9,000 -660 Descending Orlando TRACON
12:11PM 28.7667 -81.6000 103° East 265 305 8,900 -720 Descending Orlando TRACON
12:12PM 28.7667 -81.5333 90° East 228 262 7,700 -1,500 Descending Orlando TRACON
12:13PM 28.7333 -81.4667 120° Southeast 228 262 6,000 -1,500 Descending Orlando TRACON
12:14PM 28.7167 -81.4000 106° East 227 261 4,800 -1,440 Descending Orlando TRACON
12:15PM 28.6667 -81.3333 131° Southeast 227 261 3,100 -960 Descending Orlando TRACON
12:16PM 28.6333 -81.3000 139° Southeast 186 214 2,800 -360 Descending Orlando TRACON
12:17PM 28.5667 -81.2833 168° South 190 219 2,400 -600 Descending Orlando TRACON
12:18PM 28.5167 -81.2833 180° South 177 204 1,600 -780 Descending Orlando TRACON
12:19PM 28.4833 -81.2833 180° South 141 162 900 -720 Descending Orlando TRACON
12:21PM 28.4294 -81.3090 215° Southwest  Level Estimated
12:28PM 28.4294 -81.3090 24° Northeast  Level Estimated
12:29PM 28.4294 -81.3090 24° Northeast  Level Estimated
12:30PM 28.4294 -81.3090 24° Northeast  Level Estimated
12:31PM 28.4294 -81.3090 24° Northeast  Level Estimated